createdAt,value
2023-11-13T00:00:14.150Z,16.55
2023-11-13T00:02:42.684Z,16.33
2023-11-13T00:05:10.642Z,17.63
2023-11-13T00:07:38.346Z,20.33
2023-11-13T00:10:09.621Z,18.75
2023-11-13T00:12:37.865Z,16.55
2023-11-13T00:15:08.160Z,15.88
2023-11-13T00:17:36.011Z,17.95
2023-11-13T00:20:06.987Z,16.42
2023-11-13T00:22:35.411Z,17.02
2023-11-13T00:25:03.214Z,17.92
2023-11-13T00:27:30.973Z,18.38
2023-11-13T00:29:58.950Z,19.67
2023-11-13T00:32:28.189Z,19.38
2023-11-13T00:34:56.257Z,21.00
2023-11-13T00:37:24.404Z,21.52
2023-11-13T00:39:52.185Z,19.80
2023-11-13T00:42:20.834Z,20.38
2023-11-13T00:44:49.284Z,20.20
2023-11-13T00:47:17.018Z,18.63
2023-11-13T00:49:46.996Z,19.67
2023-11-13T00:52:15.087Z,19.38
2023-11-13T00:54:43.904Z,19.30
2023-11-13T00:57:11.600Z,17.10
2023-11-13T00:59:39.374Z,19.17
2023-11-13T01:02:07.231Z,20.88
2023-11-13T01:04:35.020Z,22.48
2023-11-13T01:07:04.393Z,22.58
2023-11-13T01:09:32.593Z,24.65
2023-11-13T01:12:00.596Z,22.40
2023-11-13T01:14:28.532Z,24.85
2023-11-13T01:16:58.200Z,22.95
2023-11-13T01:19:26.176Z,22.48
2023-11-13T01:21:55.522Z,25.90
2023-11-13T01:24:24.730Z,23.63
2023-11-13T01:26:54.193Z,22.13
2023-11-13T01:29:22.177Z,21.55
2023-11-13T01:31:50.352Z,22.48
2023-11-13T01:34:18.357Z,23.15
2023-11-13T01:36:46.348Z,23.15
2023-11-13T01:39:14.829Z,27.20
2023-11-13T01:41:45.043Z,23.52
2023-11-13T01:44:12.947Z,22.73
2023-11-13T01:46:40.793Z,24.13
2023-11-13T01:49:08.757Z,25.30
2023-11-13T01:51:37.162Z,23.45
2023-11-13T01:54:07.171Z,24.02
2023-11-13T01:56:36.094Z,24.38
2023-11-13T01:59:05.824Z,24.67
2023-11-13T02:01:34.033Z,23.33
2023-11-13T02:04:02.032Z,22.67
2023-11-13T02:06:29.845Z,23.05
2023-11-13T02:08:57.657Z,22.48
2023-11-13T02:11:27.521Z,22.45
2023-11-13T02:13:55.855Z,23.17
2023-11-13T02:16:26.150Z,22.88
2023-11-13T02:18:54.709Z,22.00
2023-11-13T02:21:22.577Z,22.00
2023-11-13T02:23:53.982Z,22.15
2023-11-13T02:26:23.834Z,28.08
2023-11-13T02:28:51.648Z,31.80
2023-11-13T02:31:19.749Z,23.60
2023-11-13T02:33:47.582Z,22.92
2023-11-13T02:36:15.352Z,22.17
2023-11-13T02:38:43.130Z,22.25
2023-11-13T02:41:12.847Z,21.85
2023-11-13T02:43:41.160Z,22.80
2023-11-13T02:46:09.044Z,22.23
2023-11-13T02:48:36.822Z,22.17
2023-11-13T02:51:05.065Z,21.30
2023-11-13T02:53:32.803Z,21.80
2023-11-13T02:56:01.079Z,21.02
2023-11-13T02:58:30.279Z,22.27
2023-11-13T03:01:00.157Z,22.17
2023-11-13T03:03:28.349Z,21.83
2023-11-13T03:05:56.555Z,21.35
2023-11-13T03:08:24.733Z,23.95
2023-11-13T03:10:52.971Z,24.17
2023-11-13T03:13:20.790Z,22.48
2023-11-13T03:15:51.009Z,24.33
2023-11-13T03:18:19.412Z,20.52
2023-11-13T03:20:47.431Z,22.60
2023-11-13T03:23:15.651Z,22.13
2023-11-13T03:25:43.449Z,22.10
2023-11-13T03:28:11.363Z,22.30
2023-11-13T03:30:39.872Z,23.48
2023-11-13T03:33:09.495Z,26.40
2023-11-13T03:35:38.819Z,23.70
2023-11-13T03:38:06.567Z,23.27
2023-11-13T03:40:34.326Z,21.08
2023-11-13T03:43:02.716Z,23.73
2023-11-13T03:45:30.457Z,22.30
2023-11-13T03:47:58.578Z,21.75
2023-11-13T03:50:27.918Z,20.33
2023-11-13T03:52:56.082Z,20.10
2023-11-13T03:55:24.068Z,18.33
2023-11-13T03:57:52.855Z,18.83
2023-11-13T04:00:21.328Z,18.52
2023-11-13T04:02:50.270Z,17.50
2023-11-13T04:05:18.870Z,16.65
2023-11-13T04:07:48.137Z,16.55
2023-11-13T04:10:17.281Z,15.32
2023-11-13T04:12:45.619Z,14.73
2023-11-13T04:15:14.886Z,14.77
2023-11-13T04:17:43.145Z,14.18
2023-11-13T04:20:14.193Z,15.32
2023-11-13T04:22:42.477Z,14.20
2023-11-13T04:25:13.204Z,17.48
2023-11-13T04:27:42.335Z,16.60
2023-11-13T04:30:10.951Z,15.18
2023-11-13T04:32:38.820Z,14.35
2023-11-13T04:35:07.978Z,15.35
2023-11-13T04:37:35.961Z,14.88
2023-11-13T04:40:06.185Z,14.68
2023-11-13T04:42:36.582Z,15.02
2023-11-13T04:45:05.174Z,15.23
2023-11-13T04:47:33.522Z,14.80
2023-11-13T04:50:01.794Z,14.35
2023-11-13T04:52:30.034Z,15.60
2023-11-13T04:54:57.811Z,16.10
2023-11-13T04:57:25.864Z,14.23
2023-11-13T04:59:55.147Z,16.08
2023-11-13T05:02:23.852Z,19.15
2023-11-13T05:04:51.644Z,16.33
2023-11-13T05:07:19.841Z,16.23
2023-11-13T05:09:48.719Z,16.63
2023-11-13T05:12:17.241Z,18.27
2023-11-13T05:14:45.001Z,17.17
2023-11-13T05:17:14.413Z,15.30
2023-11-13T05:19:42.526Z,16.23
2023-11-13T05:22:10.922Z,18.10
2023-11-13T05:24:39.979Z,21.17
2023-11-13T05:27:07.729Z,17.52
2023-11-13T05:29:35.535Z,18.98
2023-11-13T05:32:03.502Z,16.60
2023-11-13T05:34:33.259Z,18.20
2023-11-13T05:37:01.239Z,16.65
2023-11-13T05:39:29.050Z,18.88
2023-11-13T05:41:56.986Z,16.98
2023-11-13T05:44:24.753Z,15.27
2023-11-13T05:46:52.502Z,17.00
2023-11-13T05:49:20.438Z,14.18
2023-11-13T05:51:50.805Z,20.45
2023-11-13T05:54:19.441Z,16.02
2023-11-13T05:56:47.271Z,16.20
2023-11-13T05:59:16.155Z,14.82
2023-11-13T06:01:44.279Z,15.57
2023-11-13T06:04:12.265Z,14.80
2023-11-13T06:06:39.983Z,14.27
2023-11-13T06:09:13.051Z,14.43
2023-11-13T06:11:41.184Z,16.60
2023-11-13T06:14:09.119Z,16.02
2023-11-13T06:16:37.462Z,16.33
2023-11-13T06:19:08.602Z,14.68
2023-11-13T06:21:36.628Z,14.95
2023-11-13T06:24:04.834Z,16.65
2023-11-13T06:26:34.113Z,13.73
2023-11-13T06:29:02.754Z,13.57
2023-11-13T06:31:30.539Z,13.65
2023-11-13T06:33:58.770Z,14.90
2023-11-13T06:36:26.606Z,14.73
2023-11-13T06:38:54.388Z,13.32
2023-11-13T06:41:22.337Z,13.60
2023-11-13T06:43:54.929Z,13.27
2023-11-13T06:46:23.167Z,13.30
2023-11-13T06:48:51.453Z,14.95
2023-11-13T06:51:20.688Z,18.00
2023-11-13T06:53:48.558Z,13.60
2023-11-13T06:56:16.526Z,14.52
2023-11-13T06:58:44.444Z,19.08
2023-11-13T07:01:15.209Z,14.48
2023-11-13T07:03:44.557Z,12.85
2023-11-13T07:06:13.179Z,14.95
2023-11-13T07:08:41.718Z,12.18
2023-11-13T07:11:10.175Z,12.52
2023-11-13T07:13:39.603Z,14.85
2023-11-13T07:16:10.470Z,14.23
2023-11-13T07:18:40.256Z,13.50
2023-11-13T07:21:08.435Z,16.80
2023-11-13T07:23:38.138Z,12.35
2023-11-13T07:26:06.470Z,14.73
2023-11-13T07:28:34.606Z,13.23
2023-11-13T07:31:02.814Z,13.70
2023-11-13T07:33:30.506Z,13.68
2023-11-13T07:36:00.710Z,11.52
2023-11-13T07:38:28.463Z,14.32
2023-11-13T07:40:56.405Z,13.02
2023-11-13T07:43:24.306Z,10.68
2023-11-13T07:45:54.021Z,11.45
2023-11-13T07:48:22.125Z,13.13
2023-11-13T07:50:57.659Z,16.15
2023-11-13T07:53:28.863Z,14.18
2023-11-13T07:55:56.773Z,11.63
2023-11-13T07:58:27.636Z,15.18
2023-11-13T08:00:56.261Z,18.40
2023-11-13T08:03:25.163Z,17.55
2023-11-13T08:05:53.305Z,10.30
2023-11-13T08:08:21.091Z,14.20
2023-11-13T08:10:52.936Z,18.80
2023-11-13T08:13:22.326Z,21.45
2023-11-13T08:15:51.944Z,17.67
2023-11-13T08:18:20.076Z,22.63
2023-11-13T08:20:48.774Z,20.25
2023-11-13T08:23:17.270Z,21.85
2023-11-13T08:25:46.110Z,28.17
2023-11-13T08:28:16.232Z,23.40
2023-11-13T08:30:45.710Z,24.83
2023-11-13T08:33:14.194Z,30.30
2023-11-13T08:35:42.150Z,22.38
2023-11-13T08:38:12.491Z,31.27
2023-11-13T08:40:40.552Z,32.38
2023-11-13T08:43:12.256Z,30.23
2023-11-13T08:45:54.407Z,28.35
2023-11-13T08:48:28.586Z,31.25
2023-11-13T08:51:00.877Z,31.88
2023-11-13T08:53:29.615Z,27.83
2023-11-13T08:55:57.812Z,30.48
2023-11-13T08:58:25.860Z,33.22
2023-11-13T09:00:55.237Z,32.53
2023-11-13T09:03:23.239Z,34.85
2023-11-13T09:05:51.414Z,34.22
2023-11-13T09:08:19.158Z,37.78
2023-11-13T09:10:48.099Z,32.85
2023-11-13T09:13:15.782Z,33.85
2023-11-13T09:15:43.581Z,34.85
2023-11-13T09:18:13.731Z,27.83
2023-11-13T09:20:43.277Z,30.90
2023-11-13T09:23:12.477Z,28.30
2023-11-13T09:25:40.738Z,31.65
2023-11-13T09:28:09.063Z,27.17
2023-11-13T09:30:37.266Z,21.10
2023-11-13T09:33:06.504Z,26.30
2023-11-13T09:35:37.564Z,24.17
2023-11-13T09:38:05.831Z,25.02
2023-11-13T09:40:36.014Z,26.60
2023-11-13T09:43:09.100Z,29.15
2023-11-13T09:45:38.393Z,23.63
2023-11-13T09:48:09.162Z,20.35
2023-11-13T09:50:42.074Z,17.98
2023-11-13T09:53:10.652Z,19.75
2023-11-13T09:55:42.714Z,18.85
2023-11-13T09:58:13.592Z,18.45
2023-11-13T10:00:42.791Z,15.68
2023-11-13T10:03:11.214Z,15.05
2023-11-13T10:05:42.781Z,19.02
2023-11-13T10:08:10.945Z,17.80
2023-11-13T10:10:41.094Z,12.23
2023-11-13T10:13:13.276Z,16.58
2023-11-13T10:15:43.712Z,11.98
2023-11-13T10:18:13.446Z,13.95
2023-11-13T10:20:44.817Z,10.32
2023-11-13T10:23:14.432Z,16.58
2023-11-13T10:25:45.547Z,10.95
2023-11-13T10:28:14.595Z,9.35
2023-11-13T10:30:57.499Z,15.05
2023-11-13T10:33:26.286Z,10.68
2023-11-13T10:36:05.750Z,9.63
2023-11-13T10:38:44.926Z,9.88
2023-11-13T10:41:13.864Z,10.40
2023-11-13T10:43:42.587Z,10.02
2023-11-13T10:46:10.617Z,12.07
2023-11-13T10:48:41.914Z,10.50
2023-11-13T10:51:14.466Z,13.10
2023-11-13T10:53:44.283Z,12.13
2023-11-13T10:56:12.597Z,14.05
2023-11-13T10:58:40.733Z,15.10
2023-11-13T11:01:11.926Z,10.27
2023-11-13T11:03:41.265Z,14.82
2023-11-13T11:06:16.031Z,12.50
2023-11-13T11:08:45.654Z,16.40
2023-11-13T11:11:14.734Z,14.55
2023-11-13T11:13:46.997Z,15.68
2023-11-13T11:16:43.243Z,14.48
2023-11-13T11:19:22.697Z,14.55
2023-11-13T11:22:01.500Z,11.85
2023-11-13T11:24:44.220Z,11.75
2023-11-13T11:27:12.098Z,13.20
2023-11-13T11:29:42.189Z,7.10
2023-11-13T11:32:20.717Z,15.05
2023-11-13T11:34:53.587Z,13.57
2023-11-13T11:37:22.917Z,12.93
2023-11-13T11:39:52.973Z,12.52
2023-11-13T11:42:22.861Z,14.23
2023-11-13T11:45:03.174Z,12.75
2023-11-13T11:47:31.550Z,14.05
2023-11-13T11:50:01.090Z,15.00
2023-11-13T11:52:52.937Z,16.25
2023-11-13T11:55:22.777Z,11.95
2023-11-13T11:57:51.666Z,10.60
2023-11-13T12:00:21.898Z,13.48
2023-11-13T12:02:53.087Z,8.07
2023-11-13T12:05:21.936Z,13.20
2023-11-13T12:07:53.586Z,10.40
2023-11-13T12:10:22.331Z,12.60
2023-11-13T12:12:52.007Z,10.77
2023-11-13T12:15:20.368Z,11.73
2023-11-13T12:17:49.521Z,11.63
2023-11-13T12:20:21.692Z,10.15
2023-11-13T12:22:52.790Z,10.20
2023-11-13T12:25:21.071Z,12.88
2023-11-13T12:27:50.169Z,13.63
2023-11-13T12:30:20.616Z,10.98
2023-11-13T12:32:49.290Z,7.80
2023-11-13T12:35:18.806Z,10.07
2023-11-13T12:37:47.945Z,8.02
2023-11-13T12:40:21.065Z,6.63
2023-11-13T12:42:49.496Z,8.48
2023-11-13T12:45:19.620Z,9.65
2023-11-13T12:47:49.180Z,6.82
2023-11-13T12:50:18.703Z,7.05
2023-11-13T12:52:49.174Z,8.52
2023-11-13T12:55:21.265Z,6.00
2023-11-13T12:57:50.174Z,9.88
2023-11-13T13:00:21.046Z,6.60
2023-11-13T13:02:51.225Z,5.88
2023-11-13T13:07:51.273Z,7.78
2023-11-13T13:10:23.092Z,9.05
2023-11-13T13:12:51.845Z,6.95
2023-11-13T13:15:21.844Z,7.43
2023-11-13T13:17:50.907Z,7.35
2023-11-13T13:20:24.922Z,10.18
2023-11-13T13:22:54.484Z,10.10
2023-11-13T13:25:27.242Z,9.85
2023-11-13T13:27:55.841Z,13.80
2023-11-13T13:30:23.793Z,9.93
2023-11-13T13:32:52.485Z,9.65
2023-11-13T13:35:21.540Z,13.82
2023-11-13T13:37:49.529Z,14.32
2023-11-13T13:40:18.523Z,13.98
2023-11-13T13:42:48.964Z,8.45
2023-11-13T13:45:17.854Z,12.48
2023-11-13T13:47:46.065Z,8.65
2023-11-13T13:50:20.520Z,8.55
2023-11-13T13:52:52.670Z,9.88
2023-11-13T13:55:22.791Z,7.68
2023-11-13T13:57:52.847Z,7.18
2023-11-13T14:03:01.287Z,9.27
2023-11-13T14:05:30.007Z,6.18
2023-11-13T14:07:58.574Z,3.22
2023-11-13T14:10:28.259Z,4.38
2023-11-13T14:12:57.611Z,2.45
2023-11-13T14:15:27.131Z,2.15
2023-11-13T14:17:57.055Z,1.38
2023-11-13T14:20:26.014Z,1.98
2023-11-13T14:22:56.817Z,1.92
2023-11-13T14:25:28.045Z,0.90
2023-11-13T14:27:58.813Z,3.75
2023-11-13T14:30:30.365Z,3.45
2023-11-13T14:33:00.436Z,1.95
2023-11-13T14:35:29.167Z,1.42
2023-11-13T14:37:57.326Z,2.45
2023-11-13T14:40:27.229Z,1.63
2023-11-13T14:42:55.505Z,0.80
2023-11-13T14:45:25.931Z,2.80
2023-11-13T14:47:54.269Z,1.75
2023-11-13T14:50:24.736Z,1.38
2023-11-13T14:52:54.467Z,3.30
2023-11-13T14:55:24.053Z,1.17
2023-11-13T14:57:53.643Z,2.05
2023-11-13T15:00:24.743Z,0.85
2023-11-13T15:02:54.715Z,1.45
2023-11-13T15:05:23.479Z,0.75
2023-11-13T15:07:51.978Z,2.15
2023-11-13T15:10:20.609Z,1.27
2023-11-13T15:12:49.277Z,2.15
2023-11-13T15:15:19.506Z,1.35
2023-11-13T15:17:50.813Z,3.53
2023-11-13T15:20:20.252Z,1.45
2023-11-13T15:25:21.530Z,4.63
2023-11-13T15:27:50.312Z,5.90
2023-11-13T15:30:21.657Z,5.07
2023-11-13T15:32:51.235Z,3.88
2023-11-13T15:35:20.605Z,3.60
2023-11-13T15:37:48.970Z,5.72
2023-11-13T15:40:17.771Z,5.45
2023-11-13T15:42:46.136Z,3.40
2023-11-13T15:45:14.124Z,3.55
2023-11-13T15:47:42.570Z,2.42
2023-11-13T15:50:17.080Z,3.25
2023-11-13T15:52:45.357Z,4.60
2023-11-13T15:55:15.624Z,2.47
2023-11-13T15:57:45.256Z,4.80
2023-11-13T16:00:14.579Z,2.08
2023-11-13T16:02:42.695Z,3.13
2023-11-13T16:05:13.833Z,2.75
2023-11-13T16:07:41.822Z,1.25
2023-11-13T16:10:11.317Z,3.47
2023-11-13T16:12:41.921Z,2.90
2023-11-13T16:15:12.263Z,3.78
2023-11-13T16:17:40.954Z,3.28
2023-11-13T16:20:11.737Z,2.28
2023-11-13T16:22:44.161Z,2.72
2023-11-13T16:25:12.368Z,1.40
2023-11-13T16:27:40.119Z,5.22
2023-11-13T16:30:11.087Z,2.95
2023-11-13T16:32:39.874Z,2.30
2023-11-13T16:35:09.955Z,5.00
2023-11-13T16:37:38.760Z,2.25
2023-11-13T16:40:10.502Z,5.13
2023-11-13T16:42:40.750Z,1.67
2023-11-13T16:45:13.826Z,2.40
2023-11-13T16:47:43.983Z,3.67
2023-11-13T16:50:14.452Z,2.92
2023-11-13T16:52:42.658Z,4.72
2023-11-13T16:55:12.384Z,2.70
2023-11-13T16:57:40.118Z,5.85
2023-11-13T17:00:11.110Z,2.53
2023-11-13T17:02:41.776Z,2.88
2023-11-13T17:05:10.188Z,2.95
2023-11-13T17:07:38.228Z,4.55
2023-11-13T17:10:06.864Z,3.00
2023-11-13T17:12:36.149Z,4.68
2023-11-13T17:15:04.221Z,6.13
2023-11-13T17:17:32.095Z,2.70
2023-11-13T17:20:00.697Z,2.97
2023-11-13T17:22:30.878Z,2.88
2023-11-13T17:24:58.773Z,2.22
2023-11-13T17:27:27.070Z,2.88
2023-11-13T17:29:56.670Z,3.55
2023-11-13T17:32:27.769Z,0.52
2023-11-13T17:34:57.260Z,1.63
2023-11-13T17:37:25.104Z,1.20
2023-11-13T17:39:52.963Z,1.65
2023-11-13T17:42:22.320Z,0.60
2023-11-13T17:44:50.339Z,0.40
2023-11-13T17:47:21.322Z,0.50
2023-11-13T17:49:49.427Z,0.65
2023-11-13T17:52:19.096Z,2.20
2023-11-13T17:54:47.657Z,1.70
2023-11-13T17:57:15.849Z,5.72
2023-11-13T17:59:44.029Z,22.05
2023-11-13T18:02:12.340Z,2.60
2023-11-13T18:04:41.645Z,0.77
2023-11-13T18:07:09.514Z,0.75
2023-11-13T18:09:37.862Z,0.80
2023-11-13T18:12:09.608Z,1.55
2023-11-13T18:14:37.659Z,2.05
2023-11-13T18:17:06.051Z,2.00
2023-11-13T18:19:33.937Z,1.40
2023-11-13T18:22:02.947Z,0.77
2023-11-13T18:24:31.091Z,1.08
2023-11-13T18:26:59.272Z,0.63
2023-11-13T18:29:27.179Z,1.30
2023-11-13T18:31:56.192Z,1.02
2023-11-13T18:34:24.625Z,1.08
2023-11-13T18:36:52.512Z,0.85
2023-11-13T18:39:24.074Z,0.88
2023-11-13T18:41:52.566Z,0.85
2023-11-13T18:44:21.655Z,0.50
2023-11-13T18:46:51.207Z,0.77
2023-11-13T18:49:20.527Z,1.05
2023-11-13T18:51:49.366Z,0.90
2023-11-13T18:54:17.740Z,2.28
2023-11-13T18:56:48.991Z,1.30
2023-11-13T18:59:18.971Z,4.88
2023-11-13T19:01:47.052Z,4.07
2023-11-13T19:04:15.539Z,2.50
2023-11-13T19:06:44.015Z,2.13
2023-11-13T19:09:13.979Z,2.25
2023-11-13T19:11:42.351Z,1.60
2023-11-13T19:14:16.573Z,1.90
2023-11-13T19:16:45.936Z,4.35
2023-11-13T19:19:14.815Z,2.70
2023-11-13T19:21:42.651Z,4.07
2023-11-13T19:24:10.703Z,2.25
2023-11-13T19:26:40.773Z,2.92
2023-11-13T19:29:10.927Z,2.15
2023-11-13T19:31:40.201Z,6.82
2023-11-13T19:34:09.156Z,3.72
2023-11-13T19:36:37.214Z,5.28
2023-11-13T19:39:05.409Z,6.72
2023-11-13T19:41:33.446Z,8.95
2023-11-13T19:44:04.797Z,4.70
2023-11-13T19:46:33.184Z,4.00
2023-11-13T19:49:05.515Z,4.63
2023-11-13T19:51:33.990Z,3.47
2023-11-13T19:54:02.025Z,6.63
2023-11-13T19:56:30.462Z,4.60
2023-11-13T19:58:58.425Z,4.53
2023-11-13T20:01:26.440Z,4.07
2023-11-13T20:03:55.257Z,5.82
2023-11-13T20:06:25.963Z,3.50
2023-11-13T20:08:55.285Z,4.30
2023-11-13T20:11:23.654Z,5.45
2023-11-13T20:13:51.548Z,6.35
2023-11-13T20:16:19.929Z,4.47
2023-11-13T20:18:48.751Z,4.55
2023-11-13T20:21:17.008Z,6.03
2023-11-13T20:23:46.125Z,3.55
2023-11-13T20:26:14.004Z,5.20
2023-11-13T20:28:42.070Z,4.97
2023-11-13T20:31:10.391Z,7.55
2023-11-13T20:33:39.181Z,5.80
2023-11-13T20:36:07.989Z,6.03
2023-11-13T20:38:36.197Z,4.85
2023-11-13T20:41:05.895Z,8.52
2023-11-13T20:43:34.049Z,2.08
2023-11-13T20:46:04.045Z,10.43
2023-11-13T20:48:31.928Z,5.45
2023-11-13T20:51:00.212Z,4.97
2023-11-13T20:53:28.608Z,4.75
2023-11-13T20:55:56.538Z,8.00
2023-11-13T20:58:26.136Z,8.05
2023-11-13T21:00:54.893Z,7.35
2023-11-13T21:03:23.232Z,8.98
2023-11-13T21:06:02.359Z,17.80
2023-11-13T21:08:35.577Z,12.93
2023-11-13T21:11:06.745Z,10.00
2023-11-13T21:13:36.102Z,8.63
2023-11-13T21:16:03.976Z,7.00
2023-11-13T21:18:32.635Z,9.05
2023-11-13T21:21:01.153Z,7.82
2023-11-13T21:23:29.890Z,7.22
2023-11-13T21:26:00.217Z,10.15
2023-11-13T21:28:28.659Z,9.25
2023-11-13T21:30:57.935Z,8.48
2023-11-13T21:33:26.440Z,7.72
2023-11-13T21:35:54.892Z,11.18
2023-11-13T21:38:23.130Z,9.07
2023-11-13T21:40:51.322Z,12.27
2023-11-13T21:43:21.731Z,4.72
2023-11-13T21:45:51.616Z,10.32
2023-11-13T21:48:20.847Z,11.38
2023-11-13T21:50:48.682Z,6.57
2023-11-13T21:53:18.556Z,9.73
2023-11-13T21:55:46.431Z,9.48
2023-11-13T21:58:14.337Z,5.65
2023-11-13T22:00:43.560Z,8.52
2023-11-13T22:03:12.599Z,9.40
2023-11-13T22:05:44.289Z,11.70
2023-11-13T22:08:12.288Z,7.85
2023-11-13T22:10:40.740Z,13.27
2023-11-13T22:13:08.988Z,7.90
2023-11-13T22:15:37.953Z,11.15
2023-11-13T22:18:09.553Z,14.73
2023-11-13T22:20:37.866Z,13.20
2023-11-13T22:23:09.232Z,8.77
2023-11-13T22:25:37.681Z,9.25
2023-11-13T22:28:05.648Z,12.77
2023-11-13T22:30:34.222Z,12.35
2023-11-13T22:33:02.495Z,13.32
2023-11-13T22:35:30.939Z,12.73
2023-11-13T22:37:58.777Z,12.50
2023-11-13T22:40:28.156Z,12.63
2023-11-13T22:42:55.957Z,7.95
2023-11-13T22:45:24.726Z,9.05
2023-11-13T22:47:52.702Z,9.00
2023-11-13T22:50:20.437Z,12.25
2023-11-13T22:52:48.515Z,11.57
2023-11-13T22:55:16.532Z,13.65
2023-11-13T22:57:46.594Z,10.43
2023-11-13T23:00:20.533Z,13.65
2023-11-13T23:02:50.407Z,10.50
2023-11-13T23:05:18.432Z,8.52
2023-11-13T23:07:48.268Z,9.88
2023-11-13T23:10:16.147Z,11.93
2023-11-13T23:12:46.699Z,15.95
2023-11-13T23:15:14.774Z,6.70
2023-11-13T23:17:42.679Z,11.40
2023-11-13T23:20:12.480Z,13.02
2023-11-13T23:22:40.488Z,11.02
2023-11-13T23:25:09.773Z,11.52
2023-11-13T23:27:38.737Z,10.00
2023-11-13T23:30:10.092Z,11.30
2023-11-13T23:32:38.162Z,12.32
2023-11-13T23:35:07.692Z,11.52
2023-11-13T23:37:35.620Z,11.93
2023-11-13T23:40:05.929Z,12.90
2023-11-13T23:42:34.336Z,11.93
2023-11-13T23:45:02.158Z,14.10
2023-11-13T23:47:35.612Z,9.65
2023-11-13T23:50:04.942Z,11.32
2023-11-13T23:52:32.902Z,15.88
2023-11-13T23:55:00.927Z,16.48
2023-11-13T23:57:29.236Z,16.90
2023-11-13T23:59:57.015Z,13.98
